BAW717 LTFM-EGLL
Flight info
| Callsign | BAW717 |
|---|---|
| Flight time | 1h 53m |
| Altitude | 36000 |
| Route | TUDBU Q26 ETUBA DCT NAVOD DCT INVED DCT BEGLA/N0436F380 DCT DEXIT DCT INBED DCT BOMBI DCT ADKUV DCT BUB L608 LOGAN |
| Aircraft | A21N/M-SDE2E3FGHIRWXY/LB1 |
Departure
| Time | 2026-04-30 20:49 |
|---|---|
| Airport | İstanbul Airport (LTFM) |
Arrival
| Time | 2026-04-30 22:42 |
|---|---|
| Airport | London Heathrow Airport (EGLL) |
| Time | Latitude | Longitude | Altitude | Speed | Heading |
|---|---|---|---|---|---|
| 2026-04-30 20:18 | 41.26557 | 28.73468 | 334 ft | 0 kts | 71° |
| 2026-04-30 20:27 | 41.26407 | 28.73535 | 334 ft | 0 kts | 71° |
| 2026-04-30 20:40 | 41.26400 | 28.73504 | 334 ft | 2 kts | 86° |
| 2026-04-30 20:40 | 41.26401 | 28.73483 | 334 ft | 2 kts | 100° |
| 2026-04-30 20:40 | 41.26405 | 28.73463 | 334 ft | 2 kts | 115° |
| 2026-04-30 20:41 | 41.26424 | 28.73430 | 334 ft | 2 kts | 143° |
| 2026-04-30 20:41 | 41.26437 | 28.73419 | 334 ft | 2 kts | 157° |
| 2026-04-30 20:41 | 41.26444 | 28.73416 | 334 ft | 1 kts | 164° |
| 2026-04-30 20:41 | 41.26447 | 28.73415 | 334 ft | 0 kts | 162° |
| 2026-04-30 20:44 | 41.26435 | 28.73420 | 334 ft | 5 kts | 161° |
| 2026-04-30 20:44 | 41.26381 | 28.73441 | 334 ft | 10 kts | 159° |
| 2026-04-30 20:44 | 41.26251 | 28.73490 | 334 ft | 8 kts | 193° |
| 2026-04-30 20:45 | 41.26209 | 28.73328 | 334 ft | 11 kts | 270° |
| 2026-04-30 20:45 | 41.26209 | 28.73223 | 334 ft | 11 kts | 271° |
| 2026-04-30 20:45 | 41.26207 | 28.73113 | 334 ft | 12 kts | 269° |
| 2026-04-30 20:46 | 41.26206 | 28.72978 | 334 ft | 0 kts | 270° |
| 2026-04-30 20:47 | 41.26206 | 28.72851 | 334 ft | 12 kts | 274° |
| 2026-04-30 20:47 | 41.26242 | 28.72774 | 334 ft | 6 kts | 350° |
| 2026-04-30 20:48 | 41.26353 | 28.72774 | 334 ft | 43 kts | 360° |
| 2026-04-30 20:48 | 41.26923 | 28.72763 | 335 ft | 117 kts | 1° |
| 2026-04-30 20:48 | 41.27954 | 28.72716 | 416 ft | 166 kts | 2° |
| 2026-04-30 20:48 | 41.29144 | 28.72702 | 598 ft | 174 kts | 5° |
| 2026-04-30 20:49 | 41.30349 | 28.72706 | 1034 ft | 178 kts | 3° |
| 2026-04-30 20:49 | 41.31657 | 28.72711 | 1495 ft | 195 kts | 5° |
| 2026-04-30 20:49 | 41.33064 | 28.72716 | 2151 ft | 209 kts | 4° |
| 2026-04-30 20:50 | 41.36282 | 28.72692 | 3341 ft | 244 kts | 1° |
| 2026-04-30 20:50 | 41.37956 | 28.72098 | 4082 ft | 260 kts | 329° |
| 2026-04-30 20:50 | 41.39243 | 28.70421 | 5006 ft | 264 kts | 310° |
| 2026-04-30 20:50 | 41.40379 | 28.68471 | 5946 ft | 265 kts | 308° |
| 2026-04-30 20:51 | 41.41519 | 28.66493 | 6879 ft | 265 kts | 307° |
| 2026-04-30 20:51 | 41.43851 | 28.62596 | 8502 ft | 271 kts | 306° |
| 2026-04-30 20:51 | 41.45072 | 28.60612 | 9283 ft | 274 kts | 306° |
| 2026-04-30 20:52 | 41.46313 | 28.58616 | 10033 ft | 277 kts | 305° |
| 2026-04-30 20:52 | 41.47568 | 28.56607 | 10682 ft | 284 kts | 305° |
| 2026-04-30 20:52 | 41.50259 | 28.52299 | 11371 ft | 318 kts | 306° |
| 2026-04-30 20:53 | 41.51717 | 28.49978 | 11805 ft | 330 kts | 306° |
| 2026-04-30 20:53 | 41.53228 | 28.47584 | 12489 ft | 334 kts | 306° |
| 2026-04-30 20:53 | 41.54748 | 28.45178 | 13194 ft | 337 kts | 305° |
| 2026-04-30 20:54 | 41.57817 | 28.40307 | 14491 ft | 344 kts | 305° |
| 2026-04-30 20:54 | 41.59399 | 28.37789 | 15166 ft | 346 kts | 305° |
| 2026-04-30 20:54 | 41.60986 | 28.35259 | 15790 ft | 350 kts | 305° |
| 2026-04-30 20:55 | 41.64154 | 28.30183 | 17005 ft | 356 kts | 304° |
| 2026-04-30 20:55 | 41.65762 | 28.27608 | 17597 ft | 359 kts | 305° |
| 2026-04-30 20:55 | 41.67405 | 28.24976 | 18143 ft | 363 kts | 304° |
| 2026-04-30 20:56 | 41.70676 | 28.19742 | 19285 ft | 368 kts | 304° |
| 2026-04-30 20:56 | 41.72319 | 28.17109 | 19842 ft | 370 kts | 304° |
| 2026-04-30 20:56 | 41.75621 | 28.11816 | 21034 ft | 371 kts | 304° |
| 2026-04-30 20:57 | 41.77270 | 28.09165 | 21552 ft | 373 kts | 304° |
| 2026-04-30 20:57 | 41.78942 | 28.06475 | 22065 ft | 375 kts | 304° |
| 2026-04-30 20:57 | 41.80611 | 28.03789 | 22568 ft | 377 kts | 304° |
| 2026-04-30 20:58 | 41.83981 | 27.98357 | 23561 ft | 381 kts | 304° |
| 2026-04-30 20:58 | 41.85671 | 27.95627 | 24034 ft | 382 kts | 303° |
| 2026-04-30 20:58 | 41.87379 | 27.92864 | 24501 ft | 384 kts | 304° |
| 2026-04-30 20:58 | 41.89066 | 27.90134 | 24946 ft | 386 kts | 303° |
| 2026-04-30 20:59 | 41.92497 | 27.84568 | 25855 ft | 388 kts | 303° |
| 2026-04-30 20:59 | 41.94220 | 27.81774 | 26288 ft | 389 kts | 303° |
| 2026-04-30 21:00 | 41.97784 | 27.76296 | 27123 ft | 394 kts | 307° |
| 2026-04-30 21:00 | 42.01622 | 27.71036 | 27852 ft | 398 kts | 307° |
| 2026-04-30 21:01 | 42.05499 | 27.65749 | 28623 ft | 399 kts | 307° |
| 2026-04-30 21:01 | 42.07461 | 27.63062 | 28957 ft | 400 kts | 307° |
| 2026-04-30 21:01 | 42.11371 | 27.57705 | 29523 ft | 405 kts | 307° |
| 2026-04-30 21:02 | 42.13351 | 27.55004 | 29795 ft | 406 kts | 307° |
| 2026-04-30 21:02 | 42.15324 | 27.52311 | 30108 ft | 406 kts | 307° |
| 2026-04-30 21:02 | 42.17308 | 27.49593 | 30514 ft | 404 kts | 307° |
| 2026-04-30 21:02 | 42.19276 | 27.46896 | 30940 ft | 401 kts | 306° |
| 2026-04-30 21:03 | 42.21215 | 27.44225 | 31284 ft | 399 kts | 307° |
| 2026-04-30 21:03 | 42.23145 | 27.41561 | 31608 ft | 398 kts | 306° |
| 2026-04-30 21:03 | 42.25055 | 27.38925 | 31864 ft | 397 kts | 306° |
| 2026-04-30 21:03 | 42.26994 | 27.36239 | 32117 ft | 397 kts | 306° |
| 2026-04-30 21:04 | 42.28901 | 27.33596 | 32412 ft | 395 kts | 306° |
| 2026-04-30 21:04 | 42.30817 | 27.30923 | 32712 ft | 395 kts | 306° |
| 2026-04-30 21:04 | 42.34600 | 27.25651 | 33280 ft | 392 kts | 306° |
| 2026-04-30 21:05 | 42.36486 | 27.23024 | 33593 ft | 389 kts | 306° |
| 2026-04-30 21:05 | 42.38363 | 27.20410 | 33854 ft | 388 kts | 306° |
| 2026-04-30 21:05 | 42.40241 | 27.17792 | 34094 ft | 387 kts | 306° |
| 2026-04-30 21:05 | 42.42098 | 27.15197 | 34315 ft | 386 kts | 306° |
| 2026-04-30 21:06 | 42.43958 | 27.12598 | 34528 ft | 385 kts | 306° |
| 2026-04-30 21:06 | 42.45825 | 27.09988 | 34706 ft | 384 kts | 306° |
| 2026-04-30 21:06 | 42.49535 | 27.04793 | 34860 ft | 389 kts | 307° |
| 2026-04-30 21:07 | 42.51417 | 27.02150 | 34976 ft | 389 kts | 307° |
| 2026-04-30 21:07 | 42.53292 | 26.99524 | 35091 ft | 390 kts | 307° |
| 2026-04-30 21:07 | 42.57086 | 26.94195 | 35224 ft | 394 kts | 307° |
| 2026-04-30 21:08 | 42.60882 | 26.88852 | 35378 ft | 397 kts | 308° |
| 2026-04-30 21:08 | 42.64717 | 26.83445 | 35532 ft | 400 kts | 307° |
| 2026-04-30 21:09 | 42.68569 | 26.78002 | 35697 ft | 401 kts | 308° |
| 2026-04-30 21:09 | 42.72411 | 26.72560 | 35883 ft | 402 kts | 308° |
| 2026-04-30 21:10 | 42.76280 | 26.67067 | 35981 ft | 404 kts | 308° |
| 2026-04-30 21:10 | 42.80090 | 26.61476 | 36150 ft | 403 kts | 305° |
| 2026-04-30 21:11 | 42.83487 | 26.55452 | 36175 ft | 401 kts | 300° |
| 2026-04-30 21:11 | 42.86547 | 26.49113 | 36187 ft | 402 kts | 298° |
| 2026-04-30 21:12 | 42.89569 | 26.42762 | 36189 ft | 403 kts | 299° |
| 2026-04-30 21:12 | 42.92624 | 26.36326 | 36195 ft | 404 kts | 299° |
| 2026-04-30 21:13 | 42.95645 | 26.29936 | 36204 ft | 403 kts | 298° |
| 2026-04-30 21:13 | 42.98683 | 26.23494 | 36215 ft | 405 kts | 298° |
| 2026-04-30 21:14 | 43.01725 | 26.17045 | 36214 ft | 405 kts | 298° |
| 2026-04-30 21:14 | 43.04760 | 26.10598 | 36236 ft | 405 kts | 298° |
| 2026-04-30 21:15 | 43.07798 | 26.04134 | 36239 ft | 405 kts | 298° |
| 2026-04-30 21:15 | 43.72722 | 24.62377 | 36173 ft | 404 kts | 299° |
| 2026-04-30 21:16 | 43.75855 | 24.55900 | 36307 ft | 409 kts | 305° |
| 2026-04-30 21:16 | 43.79478 | 24.49788 | 36341 ft | 416 kts | 308° |
| 2026-04-30 21:17 | 43.83249 | 24.43735 | 36343 ft | 420 kts | 309° |
| 2026-04-30 21:17 | 43.87061 | 24.37589 | 36341 ft | 420 kts | 309° |
| 2026-04-30 21:18 | 43.90847 | 24.31444 | 36345 ft | 420 kts | 308° |
| 2026-04-30 21:18 | 43.94599 | 24.25321 | 36343 ft | 420 kts | 308° |
| 2026-04-30 21:19 | 43.98382 | 24.19146 | 36337 ft | 421 kts | 308° |
| 2026-04-30 21:19 | 44.02166 | 24.12962 | 36338 ft | 421 kts | 308° |
| 2026-04-30 21:20 | 44.05952 | 24.06760 | 36340 ft | 422 kts | 308° |
| 2026-04-30 21:20 | 44.09737 | 24.00549 | 36340 ft | 422 kts | 308° |
| 2026-04-30 21:21 | 44.13538 | 23.94337 | 36343 ft | 423 kts | 309° |
| 2026-04-30 21:22 | 44.19230 | 23.85003 | 36347 ft | 423 kts | 309° |
| 2026-04-30 21:23 | 44.26790 | 23.72505 | 36358 ft | 424 kts | 309° |
| 2026-04-30 21:23 | 44.32459 | 23.63088 | 36360 ft | 424 kts | 309° |
| 2026-04-30 21:24 | 44.36236 | 23.56797 | 36360 ft | 424 kts | 309° |
| 2026-04-30 21:24 | 44.40031 | 23.50463 | 36358 ft | 424 kts | 309° |
| 2026-04-30 21:25 | 44.45705 | 23.40964 | 36350 ft | 425 kts | 309° |
| 2026-04-30 21:26 | 44.51365 | 23.31445 | 36346 ft | 426 kts | 308° |
| 2026-04-30 21:27 | 44.56883 | 23.22111 | 36343 ft | 426 kts | 309° |
| 2026-04-30 21:27 | 44.60671 | 23.15701 | 36344 ft | 426 kts | 309° |
| 2026-04-30 21:28 | 44.66324 | 23.06119 | 36347 ft | 427 kts | 309° |
| 2026-04-30 21:29 | 44.72001 | 22.96463 | 36352 ft | 428 kts | 309° |
| 2026-04-30 21:30 | 44.81446 | 22.80329 | 36333 ft | 429 kts | 309° |
| 2026-04-30 21:31 | 44.90881 | 22.64122 | 36297 ft | 430 kts | 309° |
| 2026-04-30 21:32 | 44.96546 | 22.54345 | 36278 ft | 430 kts | 309° |
| 2026-04-30 21:32 | 45.00316 | 22.47819 | 36265 ft | 431 kts | 309° |
| 2026-04-30 21:33 | 45.05972 | 22.37999 | 36263 ft | 431 kts | 309° |
| 2026-04-30 21:34 | 45.09756 | 22.31400 | 36267 ft | 431 kts | 309° |
| 2026-04-30 21:34 | 45.15400 | 22.21572 | 36274 ft | 431 kts | 309° |
| 2026-04-30 21:35 | 45.19165 | 22.14997 | 36273 ft | 431 kts | 309° |
| 2026-04-30 21:35 | 45.22910 | 22.08431 | 36266 ft | 431 kts | 309° |
| 2026-04-30 21:36 | 45.26669 | 22.01820 | 36265 ft | 431 kts | 309° |
| 2026-04-30 21:37 | 46.17836 | 20.36340 | 36319 ft | 435 kts | 310° |
| 2026-04-30 21:37 | 46.21600 | 20.29456 | 36325 ft | 437 kts | 310° |
| 2026-04-30 21:38 | 46.25312 | 20.22597 | 36328 ft | 437 kts | 310° |
| 2026-04-30 21:38 | 46.29047 | 20.15643 | 36328 ft | 438 kts | 310° |
| 2026-04-30 21:39 | 46.32757 | 20.08706 | 36328 ft | 438 kts | 310° |
| 2026-04-30 21:39 | 46.36460 | 20.01758 | 36331 ft | 438 kts | 310° |
| 2026-04-30 21:40 | 46.40186 | 19.94751 | 36330 ft | 439 kts | 310° |
| 2026-04-30 21:40 | 46.43894 | 19.87760 | 36332 ft | 439 kts | 310° |
| 2026-04-30 21:41 | 46.47596 | 19.80764 | 36335 ft | 439 kts | 310° |
| 2026-04-30 21:41 | 46.51301 | 19.73743 | 36335 ft | 439 kts | 310° |
| 2026-04-30 21:42 | 46.54988 | 19.66738 | 36337 ft | 439 kts | 310° |
| 2026-04-30 21:42 | 46.58687 | 19.59692 | 36337 ft | 439 kts | 310° |
| 2026-04-30 21:43 | 46.62383 | 19.52635 | 36336 ft | 439 kts | 310° |
| 2026-04-30 21:43 | 46.66101 | 19.45519 | 36338 ft | 440 kts | 310° |
| 2026-04-30 21:44 | 46.69806 | 19.38410 | 36340 ft | 441 kts | 311° |
| 2026-04-30 21:44 | 46.73477 | 19.31337 | 36342 ft | 441 kts | 310° |
| 2026-04-30 21:45 | 46.77153 | 19.24215 | 36343 ft | 441 kts | 310° |
| 2026-04-30 21:45 | 46.80838 | 19.17074 | 36345 ft | 441 kts | 310° |
| 2026-04-30 21:46 | 47.80030 | 17.17785 | 36443 ft | 444 kts | 310° |
| 2026-04-30 21:46 | 47.83326 | 17.09957 | 36402 ft | 449 kts | 305° |
| 2026-04-30 21:47 | 47.86024 | 17.01639 | 36388 ft | 450 kts | 300° |
| 2026-04-30 21:47 | 47.88500 | 16.93149 | 36389 ft | 449 kts | 300° |
| 2026-04-30 21:48 | 47.90873 | 16.84943 | 36387 ft | 449 kts | 300° |
| 2026-04-30 21:48 | 48.76371 | 13.70519 | 36821 ft | 452 kts | 300° |
| 2026-04-30 21:48 | 48.77463 | 13.66093 | 36538 ft | 449 kts | 299° |
| 2026-04-30 21:49 | 49.38016 | 10.97818 | 36558 ft | 447 kts | 296° |
| 2026-04-30 21:49 | 49.40427 | 10.89126 | 36426 ft | 442 kts | 303° |
| 2026-04-30 21:50 | 49.43179 | 10.80687 | 36393 ft | 442 kts | 303° |
| 2026-04-30 21:50 | 49.45923 | 10.72283 | 36379 ft | 443 kts | 303° |
| 2026-04-30 21:51 | 49.48681 | 10.63769 | 36371 ft | 443 kts | 303° |
| 2026-04-30 21:51 | 49.51412 | 10.55290 | 36367 ft | 443 kts | 303° |
| 2026-04-30 21:52 | 49.54150 | 10.46745 | 36365 ft | 443 kts | 302° |
| 2026-04-30 21:52 | 49.56645 | 10.38942 | 36363 ft | 443 kts | 302° |
| 2026-04-30 21:53 | 50.05945 | 8.78822 | 36362 ft | 448 kts | 296° |
| 2026-04-30 21:53 | 50.08160 | 8.69726 | 36347 ft | 450 kts | 294° |
| 2026-04-30 21:54 | 50.10325 | 8.60537 | 36344 ft | 449 kts | 294° |
| 2026-04-30 21:54 | 50.11788 | 8.54377 | 36345 ft | 449 kts | 294° |
| 2026-04-30 21:55 | 50.51655 | 6.76763 | 36363 ft | 452 kts | 288° |
| 2026-04-30 21:55 | 50.53418 | 6.67271 | 36322 ft | 453 kts | 288° |
| 2026-04-30 21:56 | 50.55163 | 6.57726 | 36317 ft | 453 kts | 288° |
| 2026-04-30 21:56 | 50.87895 | 4.68159 | 36067 ft | 453 kts | 285° |
| 2026-04-30 21:57 | 50.88692 | 4.63389 | 36193 ft | 454 kts | 287° |
| 2026-04-30 21:57 | 50.89673 | 4.58586 | 36248 ft | 457 kts | 290° |
| 2026-04-30 21:57 | 50.92165 | 4.49330 | 36283 ft | 458 kts | 297° |
| 2026-04-30 21:58 | 50.95279 | 4.40624 | 36293 ft | 458 kts | 302° |
| 2026-04-30 21:58 | 51.25181 | 3.61606 | 36291 ft | 459 kts | 301° |
| 2026-04-30 21:59 | 51.28514 | 3.52748 | 36282 ft | 459 kts | 301° |
| 2026-04-30 22:00 | 51.33425 | 3.39372 | 36278 ft | 460 kts | 299° |
| 2026-04-30 22:00 | 51.37309 | 3.25373 | 36275 ft | 460 kts | 289° |
| 2026-04-30 22:01 | 51.39534 | 3.15789 | 36271 ft | 461 kts | 290° |
| 2026-04-30 22:01 | 51.41797 | 3.06167 | 36273 ft | 460 kts | 290° |
| 2026-04-30 22:02 | 51.44060 | 2.96576 | 36269 ft | 461 kts | 290° |
| 2026-04-30 22:02 | 51.46305 | 2.86989 | 36267 ft | 461 kts | 290° |
| 2026-04-30 22:03 | 51.48542 | 2.77372 | 36268 ft | 461 kts | 289° |
| 2026-04-30 22:03 | 51.50785 | 2.67671 | 36265 ft | 463 kts | 289° |
| 2026-04-30 22:04 | 51.53019 | 2.57957 | 35880 ft | 464 kts | 289° |
| 2026-04-30 22:04 | 51.55268 | 2.48149 | 34093 ft | 474 kts | 289° |
| 2026-04-30 22:05 | 51.56393 | 2.43232 | 32708 ft | 477 kts | 289° |
| 2026-04-30 22:05 | 51.57521 | 2.38286 | 31125 ft | 481 kts | 289° |
| 2026-04-30 22:05 | 51.58663 | 2.33278 | 29437 ft | 485 kts | 288° |
| 2026-04-30 22:05 | 51.59821 | 2.28188 | 27720 ft | 486 kts | 288° |
| 2026-04-30 22:06 | 51.60945 | 2.23231 | 26742 ft | 471 kts | 288° |
| 2026-04-30 22:06 | 51.63097 | 2.13716 | 26109 ft | 450 kts | 288° |
| 2026-04-30 22:06 | 51.64156 | 2.09026 | 25542 ft | 437 kts | 288° |
| 2026-04-30 22:07 | 51.65180 | 2.04484 | 25204 ft | 428 kts | 288° |
| 2026-04-30 22:07 | 51.66178 | 2.00039 | 24908 ft | 427 kts | 288° |
| 2026-04-30 22:07 | 51.67175 | 1.95583 | 24521 ft | 424 kts | 288° |
| 2026-04-30 22:07 | 51.68176 | 1.91099 | 24272 ft | 420 kts | 288° |
| 2026-04-30 22:08 | 51.69152 | 1.86712 | 24257 ft | 421 kts | 288° |
| 2026-04-30 22:08 | 51.70131 | 1.82300 | 24252 ft | 421 kts | 288° |
| 2026-04-30 22:08 | 51.71118 | 1.77845 | 24251 ft | 421 kts | 288° |
| 2026-04-30 22:08 | 51.72100 | 1.73396 | 24250 ft | 421 kts | 288° |
| 2026-04-30 22:09 | 51.73097 | 1.68873 | 24251 ft | 422 kts | 288° |
| 2026-04-30 22:09 | 51.74083 | 1.64392 | 24250 ft | 422 kts | 288° |
| 2026-04-30 22:09 | 51.75053 | 1.59908 | 24246 ft | 422 kts | 285° |
| 2026-04-30 22:09 | 51.75464 | 1.55349 | 24215 ft | 411 kts | 263° |
| 2026-04-30 22:10 | 51.74736 | 1.50886 | 24230 ft | 401 kts | 239° |
| 2026-04-30 22:10 | 51.73015 | 1.47411 | 24234 ft | 391 kts | 215° |
| 2026-04-30 22:10 | 51.70631 | 1.45415 | 24259 ft | 380 kts | 194° |
| 2026-04-30 22:10 | 51.68108 | 1.44859 | 24238 ft | 358 kts | 176° |
| 2026-04-30 22:11 | 51.63708 | 1.47146 | 24231 ft | 319 kts | 144° |
| 2026-04-30 22:11 | 51.62124 | 1.49511 | 24231 ft | 306 kts | 129° |
| 2026-04-30 22:11 | 51.61037 | 1.52395 | 24239 ft | 307 kts | 114° |
| 2026-04-30 22:12 | 51.60288 | 1.55656 | 24246 ft | 309 kts | 111° |
| 2026-04-30 22:12 | 51.59584 | 1.58908 | 24247 ft | 309 kts | 111° |
| 2026-04-30 22:12 | 51.58875 | 1.62173 | 24246 ft | 309 kts | 111° |
| 2026-04-30 22:12 | 51.58166 | 1.65404 | 24150 ft | 305 kts | 111° |
| 2026-04-30 22:13 | 51.57468 | 1.68568 | 23763 ft | 304 kts | 110° |
| 2026-04-30 22:13 | 51.57106 | 1.71910 | 23286 ft | 308 kts | 91° |
| 2026-04-30 22:13 | 51.57474 | 1.75328 | 22917 ft | 310 kts | 75° |
| 2026-04-30 22:13 | 51.58409 | 1.78391 | 22527 ft | 314 kts | 59° |
| 2026-04-30 22:14 | 51.59881 | 1.80991 | 22112 ft | 318 kts | 42° |
| 2026-04-30 22:14 | 51.61805 | 1.82845 | 21701 ft | 323 kts | 25° |
| 2026-04-30 22:14 | 51.63971 | 1.83699 | 21368 ft | 324 kts | 6° |
| 2026-04-30 22:14 | 51.66231 | 1.83473 | 21329 ft | 330 kts | 349° |
| 2026-04-30 22:15 | 51.68400 | 1.82135 | 21310 ft | 333 kts | 330° |
| 2026-04-30 22:15 | 51.70213 | 1.79785 | 21301 ft | 335 kts | 310° |
| 2026-04-30 22:15 | 51.71496 | 1.76598 | 21299 ft | 333 kts | 291° |
| 2026-04-30 22:15 | 51.72297 | 1.73078 | 21302 ft | 334 kts | 287° |
| 2026-04-30 22:16 | 51.73040 | 1.69419 | 21312 ft | 334 kts | 287° |
| 2026-04-30 22:16 | 51.73792 | 1.65798 | 21327 ft | 334 kts | 287° |
| 2026-04-30 22:17 | 51.75674 | 1.54993 | 20311 ft | 338 kts | 273° |
| 2026-04-30 22:17 | 51.75742 | 1.51123 | 19585 ft | 344 kts | 264° |
| 2026-04-30 22:17 | 51.74834 | 1.43629 | 18732 ft | 336 kts | 248° |
| 2026-04-30 22:18 | 51.74031 | 1.40133 | 18334 ft | 333 kts | 248° |
| 2026-04-30 22:18 | 51.72968 | 1.32911 | 17522 ft | 334 kts | 259° |
| 2026-04-30 22:19 | 51.72443 | 1.25485 | 16735 ft | 330 kts | 261° |
| 2026-04-30 22:19 | 51.72199 | 1.21759 | 16356 ft | 328 kts | 261° |
| 2026-04-30 22:19 | 51.71701 | 1.14275 | 16229 ft | 319 kts | 261° |
| 2026-04-30 22:20 | 51.71469 | 1.10796 | 16225 ft | 304 kts | 261° |
| 2026-04-30 22:20 | 51.71007 | 1.04027 | 16232 ft | 297 kts | 260° |
| 2026-04-30 22:20 | 51.70776 | 1.00683 | 16234 ft | 298 kts | 260° |
| 2026-04-30 22:21 | 51.70546 | 0.97356 | 16235 ft | 297 kts | 260° |
| 2026-04-30 22:21 | 51.70323 | 0.94105 | 16133 ft | 294 kts | 260° |
| 2026-04-30 22:21 | 51.70097 | 0.90838 | 15583 ft | 301 kts | 260° |
| 2026-04-30 22:21 | 51.69857 | 0.87417 | 14861 ft | 313 kts | 260° |
| 2026-04-30 22:22 | 51.69611 | 0.83899 | 14250 ft | 319 kts | 260° |
| 2026-04-30 22:22 | 51.69363 | 0.80346 | 13858 ft | 318 kts | 260° |
| 2026-04-30 22:22 | 51.69118 | 0.76850 | 13513 ft | 315 kts | 260° |
| 2026-04-30 22:22 | 51.68872 | 0.73370 | 13135 ft | 313 kts | 260° |
| 2026-04-30 22:23 | 51.68627 | 0.69924 | 12760 ft | 311 kts | 261° |
| 2026-04-30 22:23 | 51.68382 | 0.66480 | 12390 ft | 309 kts | 261° |
| 2026-04-30 22:23 | 51.68139 | 0.63075 | 12215 ft | 306 kts | 260° |
| 2026-04-30 22:23 | 51.67891 | 0.59639 | 12211 ft | 309 kts | 261° |
| 2026-04-30 22:24 | 51.67643 | 0.56221 | 12207 ft | 309 kts | 261° |
| 2026-04-30 22:24 | 51.67394 | 0.52776 | 12201 ft | 307 kts | 260° |
| 2026-04-30 22:24 | 51.67149 | 0.49401 | 11954 ft | 304 kts | 260° |
| 2026-04-30 22:24 | 51.66902 | 0.46013 | 11516 ft | 305 kts | 261° |
| 2026-04-30 22:25 | 51.66653 | 0.42624 | 11124 ft | 304 kts | 261° |
| 2026-04-30 22:25 | 51.66409 | 0.39283 | 10745 ft | 303 kts | 260° |
| 2026-04-30 22:25 | 51.66159 | 0.35909 | 10371 ft | 301 kts | 261° |
| 2026-04-30 22:25 | 51.65913 | 0.32595 | 10000 ft | 299 kts | 260° |
| 2026-04-30 22:26 | 51.65420 | 0.25986 | 9261 ft | 295 kts | 259° |
| 2026-04-30 22:26 | 51.65174 | 0.22719 | 8889 ft | 293 kts | 260° |
| 2026-04-30 22:26 | 51.64932 | 0.19509 | 8647 ft | 285 kts | 259° |
| 2026-04-30 22:27 | 51.64699 | 0.16402 | 8484 ft | 276 kts | 259° |
| 2026-04-30 22:27 | 51.64490 | 0.13388 | 8320 ft | 268 kts | 261° |
| 2026-04-30 22:27 | 51.64172 | 0.07456 | 7745 ft | 260 kts | 262° |
| 2026-04-30 22:28 | 51.63864 | 0.01697 | 7092 ft | 258 kts | 262° |
| 2026-04-30 22:28 | 51.63706 | -0.01182 | 6758 ft | 256 kts | 261° |
| 2026-04-30 22:29 | 51.63237 | -0.09584 | 6199 ft | 247 kts | 261° |
| 2026-04-30 22:29 | 51.63079 | -0.12357 | 6192 ft | 248 kts | 261° |
| 2026-04-30 22:30 | 51.62444 | -0.23380 | 6191 ft | 248 kts | 261° |
| 2026-04-30 22:31 | 51.61961 | -0.31674 | 6186 ft | 248 kts | 262° |
| 2026-04-30 22:32 | 51.61476 | -0.39907 | 6189 ft | 246 kts | 261° |
| 2026-04-30 22:32 | 51.61152 | -0.45364 | 6187 ft | 246 kts | 261° |
| 2026-04-30 22:33 | 51.60657 | -0.53587 | 6187 ft | 246 kts | 261° |
| 2026-04-30 22:33 | 51.60322 | -0.59078 | 6189 ft | 247 kts | 262° |
| 2026-04-30 22:34 | 51.59817 | -0.67324 | 6178 ft | 245 kts | 261° |
| 2026-04-30 22:35 | 51.59485 | -0.72763 | 5559 ft | 243 kts | 261° |
| 2026-04-30 22:36 | 51.56393 | -0.79784 | 4342 ft | 199 kts | 179° |
| 2026-04-30 22:36 | 51.55036 | -0.79733 | 3994 ft | 195 kts | 174° |
| 2026-04-30 22:37 | 51.51019 | -0.79295 | 3673 ft | 191 kts | 171° |
| 2026-04-30 22:37 | 51.49804 | -0.78624 | 3401 ft | 186 kts | 148° |
| 2026-04-30 22:37 | 51.48010 | -0.75629 | 3170 ft | 188 kts | 120° |
| 2026-04-30 22:38 | 51.47636 | -0.71797 | 2999 ft | 165 kts | 95° |
| 2026-04-30 22:38 | 51.47703 | -0.68286 | 2518 ft | 150 kts | 94° |
| 2026-04-30 22:39 | 51.47719 | -0.66643 | 2294 ft | 143 kts | 96° |
| 2026-04-30 22:39 | 51.47726 | -0.61890 | 1724 ft | 141 kts | 96° |
| 2026-04-30 22:40 | 51.47731 | -0.57109 | 1158 ft | 140 kts | 94° |
| 2026-04-30 22:41 | 51.47740 | -0.52319 | 585 ft | 139 kts | 91° |
| 2026-04-30 22:41 | 51.47747 | -0.49126 | 194 ft | 136 kts | 89° |
| 2026-04-30 22:42 | 51.47759 | -0.45623 | 84 ft | 18 kts | 89° |
| 2026-04-30 22:43 | 51.47626 | -0.45470 | 85 ft | 7 kts | 188° |
| 2026-04-30 22:43 | 51.47594 | -0.45635 | 85 ft | 9 kts | 269° |
| 2026-04-30 22:44 | 51.47595 | -0.45904 | 82 ft | 14 kts | 269° |
| 2026-04-30 22:45 | 51.47592 | -0.46599 | 82 ft | 15 kts | 270° |
| 2026-04-30 22:45 | 51.47581 | -0.46962 | 82 ft | 16 kts | 268° |
| 2026-04-30 22:46 | 51.47581 | -0.47314 | 84 ft | 15 kts | 269° |
| 2026-04-30 22:47 | 51.47578 | -0.48061 | 80 ft | 11 kts | 260° |
| 2026-04-30 22:47 | 51.47488 | -0.48220 | 77 ft | 10 kts | 269° |
| 2026-04-30 22:48 | 51.47477 | -0.48455 | 79 ft | 9 kts | 233° |
| 2026-04-30 22:49 | 51.47360 | -0.48544 | 77 ft | 4 kts | 269° |
| 2026-04-30 22:49 | 51.47360 | -0.48586 | 77 ft | 0 kts | 269° |